Time;durP1;ratioP1;P1;durP2;ratioP2;P2;SDS_P1;SDS_P2;PMS_P1;PMS_P2;Temp;Humidity;BMP_temperature;BMP_pressure;BME280_temperature;BME280_humidity;BME280_pressure;Samples;Min_cycle;Max_cycle;Signal;HPM_P1;HPM_P2
2022/04/12 00:00:17;;;;;;;25.27;13.10;;;;;;;-0.69;65.79;100968.57;1623933;88;20985;-74
2022/04/12 00:02:46;;;;;;;35.90;15.60;;;;;;;-0.72;65.88;100964.66;1624056;88;21076;-74
2022/04/12 00:05:14;;;;;;;26.47;13.33;;;;;;;-0.73;65.94;100971.05;1624117;88;21045;-74
2022/04/12 00:07:43;;;;;;;26.27;13.63;;;;;;;-0.76;66.05;100965.42;1624291;88;21093;-75
2022/04/12 00:10:12;;;;;;;29.07;13.73;;;;;;;-0.77;66.10;100968.85;1624053;88;21144;-75
2022/04/12 00:12:41;;;;;;;25.93;13.23;;;;;;;-0.79;66.10;100964.52;1624182;88;21808;-74
2022/04/12 00:15:10;;;;;;;22.07;11.83;;;;;;;-0.81;66.23;100961.89;1624216;88;21561;-75
2022/04/12 00:20:26;;;;;;;23.23;11.23;;;;;;;-0.84;66.36;100956.70;1624054;88;21069;-74
2022/04/12 00:22:55;;;;;;;24.73;11.80;;;;;;;-0.87;66.51;100948.92;1624244;88;21141;-74
2022/04/12 00:25:23;;;;;;;22.83;10.77;;;;;;;-0.86;66.69;100958.37;1623946;88;21595;-74
2022/04/12 00:27:55;;;;;;;24.67;11.70;;;;;;;-0.86;66.79;100963.52;1624144;88;21057;-74
2022/04/12 00:30:24;;;;;;;29.23;12.40;;;;;;;-0.87;66.86;100960.50;1624008;88;21133;-75
2022/04/12 00:32:52;;;;;;;26.33;10.97;;;;;;;-0.89;66.97;100959.59;1624428;88;21113;-74
2022/04/12 00:35:21;;;;;;;28.10;12.10;;;;;;;-0.87;66.98;100958.36;1624073;88;21298;-74
2022/04/12 00:37:52;;;;;;;29.37;13.50;;;;;;;-0.86;67.00;100963.94;1624237;88;21586;-74
2022/04/12 00:40:24;;;;;;;27.90;12.10;;;;;;;-0.87;67.06;100963.08;1623971;88;21056;-74
2022/04/12 00:42:53;;;;;;;20.63;10.63;;;;;;;-0.87;67.17;100966.94;1624286;88;21077;-75
2022/04/12 00:45:21;;;;;;;31.62;12.00;;;;;;;-0.88;67.09;100969.08;1624275;88;21125;-75
2022/04/12 00:47:48;;;;;;;28.93;12.03;;;;;;;-0.93;67.04;100964.26;1624046;88;21558;-75
2022/04/12 00:50:16;;;;;;;32.03;14.13;;;;;;;-0.95;67.19;100967.22;1624259;88;21066;-75
2022/04/12 00:52:48;;;;;;;25.83;12.27;;;;;;;-0.95;67.25;100967.22;1624158;88;21060;-75
2022/04/12 00:55:17;;;;;;;30.03;13.73;;;;;;;-0.97;67.19;100966.30;1624188;88;20966;-75
2022/04/12 00:57:44;;;;;;;34.60;14.83;;;;;;;-1.01;67.28;100969.25;1624225;88;21125;-74
2022/04/12 01:00:16;;;;;;;28.33;14.90;;;;;;;-0.99;67.54;100965.44;1624216;88;21083;-75
2022/04/12 01:02:43;;;;;;;27.80;13.67;;;;;;;-0.96;67.54;100965.48;1624067;88;21037;-75
2022/04/12 01:05:11;;;;;;;27.83;13.33;;;;;;;-0.98;67.57;100965.87;1624336;88;21110;-74
2022/04/12 01:07:38;;;;;;;27.30;13.57;;;;;;;-1.00;67.59;100963.68;1624192;88;21547;-75
2022/04/12 01:10:07;;;;;;;30.73;14.13;;;;;;;-1.03;67.62;100972.20;1624436;88;21057;-75
2022/04/12 01:12:39;;;;;;;29.30;14.57;;;;;;;-1.05;67.65;100980.34;1624158;88;21527;-75
2022/04/12 01:15:24;;;;;;;29.40;14.70;;;;;;;-1.04;67.88;100976.91;1624453;88;21061;-75
2022/04/12 01:17:52;;;;;;;28.90;14.03;;;;;;;-1.05;67.88;100976.87;1624116;88;21029;-76
2022/04/12 01:20:30;;;;;;;24.30;13.10;;;;;;;-1.07;67.97;100978.57;1624415;88;21056;-75
2022/04/12 01:23:29;;;;;;;28.07;13.97;;;;;;;-1.08;68.05;100975.14;1623870;88;21053;-75
2022/04/12 01:25:57;;;;;;;28.30;14.50;;;;;;;-1.04;68.15;100981.20;1624513;88;21302;-75
2022/04/12 01:28:24;;;;;;;27.20;13.23;;;;;;;-1.06;68.28;100978.58;1624105;88;21121;-76
2022/04/12 01:30:54;;;;;;;34.87;14.30;;;;;;;-1.05;68.57;100975.19;1624279;88;21045;-75
2022/04/12 01:33:22;;;;;;;28.87;14.35;;;;;;;-1.06;68.44;100972.15;1624420;88;21049;-75
2022/04/12 01:35:49;;;;;;;28.80;13.43;;;;;;;-1.09;68.42;100973.38;1624410;88;21105;-74
2022/04/12 01:38:16;;;;;;;25.13;12.53;;;;;;;-1.10;68.55;100974.23;1624177;88;21136;-75
2022/04/12 01:40:44;;;;;;;21.93;12.17;;;;;;;-1.09;68.75;100973.80;1624241;88;21317;-79
2022/04/12 01:43:13;;;;;;;23.43;11.60;;;;;;;-1.08;68.85;100973.84;1624177;88;21458;-75
2022/04/12 01:45:41;;;;;;;22.93;12.37;;;;;;;-1.04;69.23;100977.34;1624288;88;21053;-75
2022/04/12 01:48:08;;;;;;;28.37;13.07;;;;;;;-1.00;69.35;100970.11;1624107;88;21092;-75
2022/04/12 01:50:35;;;;;;;26.90;12.93;;;;;;;-0.97;69.31;100972.74;1624467;88;21154;-75
2022/04/12 01:53:02;;;;;;;26.50;12.50;;;;;;;-0.96;69.38;100973.20;1624112;88;21057;-76
2022/04/12 01:55:30;;;;;;;29.60;14.67;;;;;;;-0.95;69.38;100974.51;1624370;88;21543;-75
2022/04/12 01:57:57;;;;;;;31.33;14.20;;;;;;;-0.97;69.21;100979.17;1624050;88;21065;-75
2022/04/12 02:00:24;;;;;;;28.00;13.80;;;;;;;-1.00;68.95;100977.83;1624318;88;21061;-75
2022/04/12 02:02:52;;;;;;;28.03;13.17;;;;;;;-1.07;68.90;100974.70;1624029;88;21144;-75
2022/04/12 02:05:20;;;;;;;23.43;12.37;;;;;;;-1.09;68.97;100975.09;1624317;88;21168;-75
2022/04/12 02:07:47;;;;;;;23.77;12.00;;;;;;;-1.14;69.02;100972.02;1624048;88;21030;-74
2022/04/12 02:10:14;;;;;;;25.53;12.53;;;;;;;-1.19;68.99;100973.63;1624412;88;21065;-75
2022/04/12 02:12:42;;;;;;;27.13;13.13;;;;;;;-1.21;69.05;100973.15;1624135;88;21121;-75
2022/04/12 02:15:09;;;;;;;27.70;12.60;;;;;;;-1.24;69.04;100980.81;1624262;88;21120;-75
2022/04/12 02:17:36;;;;;;;29.00;12.93;;;;;;;-1.29;69.03;100974.70;1624066;88;21778;-75
2022/04/12 02:20:04;;;;;;;26.80;13.70;;;;;;;-1.35;69.08;100978.02;1624387;88;21089;-75
2022/04/12 02:22:31;;;;;;;27.30;13.40;;;;;;;-1.39;69.16;100973.63;1624069;88;21118;-74
2022/04/12 02:24:59;;;;;;;29.00;12.70;;;;;;;-1.42;69.30;100980.86;1624429;88;21065;-75
2022/04/12 02:27:27;;;;;;;28.53;12.80;;;;;;;-1.44;69.37;100974.84;1624028;88;21153;-75
2022/04/12 02:29:54;;;;;;;27.87;12.67;;;;;;;-1.47;69.33;100974.78;1624222;88;21073;-75
2022/04/12 02:32:21;;;;;;;22.90;12.03;;;;;;;-1.50;69.46;100974.68;1624116;88;21487;-75
2022/04/12 02:34:49;;;;;;;25.73;12.83;;;;;;;-1.52;69.56;100974.20;1624345;88;21057;-75
2022/04/12 02:37:16;;;;;;;25.67;14.07;;;;;;;-1.55;69.53;100970.28;1624098;88;21073;-75
2022/04/12 02:39:43;;;;;;;24.43;12.90;;;;;;;-1.55;69.66;100974.13;1624363;88;21947;-75
2022/04/12 02:42:10;;;;;;;21.97;12.27;;;;;;;-1.57;69.78;100968.55;1623988;88;21574;-75
2022/04/12 02:44:38;;;;;;;23.70;12.00;;;;;;;-1.60;69.78;100965.92;1624231;88;21110;-75
2022/04/12 02:47:06;;;;;;;23.73;13.13;;;;;;;-1.63;69.63;100965.00;1624101;88;21107;-75
2022/04/12 02:49:33;;;;;;;25.43;12.47;;;;;;;-1.67;69.70;100973.45;1624365;88;21148;-74
2022/04/12 02:52:00;;;;;;;25.60;11.93;;;;;;;-1.69;69.75;100976.02;1624022;88;21136;-75
2022/04/12 02:54:27;;;;;;;26.03;13.30;;;;;;;-1.72;69.78;100971.20;1624091;88;21531;-75
2022/04/12 02:56:55;;;;;;;27.07;13.40;;;;;;;-1.74;69.89;100968.61;1624093;88;21069;-74
2022/04/12 02:59:22;;;;;;;27.20;12.77;;;;;;;-1.75;69.95;100968.14;1624097;88;21054;-80
2022/04/12 03:01:50;;;;;;;25.50;12.53;;;;;;;-1.78;69.83;100962.94;1624092;88;21479;-75
2022/04/12 03:04:18;;;;;;;30.17;14.00;;;;;;;-1.83;69.85;100970.56;1624243;88;22062;-75
2022/04/12 03:06:45;;;;;;;27.80;13.37;;;;;;;-1.85;69.98;100968.80;1624021;88;21500;-75
2022/04/12 03:09:13;;;;;;;24.63;13.07;;;;;;;-1.84;70.08;100975.66;1624308;88;21073;-74
2022/04/12 03:11:40;;;;;;;26.43;13.77;;;;;;;-1.85;70.22;100977.36;1624034;88;21093;-81
2022/04/12 03:14:08;;;;;;;24.33;14.43;;;;;;;-1.86;70.16;100974.75;1624313;88;21057;-75
2022/04/12 03:16:36;;;;;;;27.67;13.70;;;;;;;-1.89;70.12;100979.40;1624200;88;21211;-74
2022/04/12 03:19:03;;;;;;;25.37;12.93;;;;;;;-1.90;70.19;100978.09;1624201;88;21037;-75
2022/04/12 03:21:29;;;;;;;27.10;13.47;;;;;;;-1.91;70.27;100978.52;1624005;88;21073;-75
2022/04/12 03:23:56;;;;;;;29.00;13.70;;;;;;;-1.92;70.24;100977.19;1623999;88;21625;-75
2022/04/12 03:26:24;;;;;;;27.40;13.63;;;;;;;-1.96;70.12;100968.55;1624243;88;21283;-75
2022/04/12 03:28:51;;;;;;;29.47;14.50;;;;;;;-1.99;70.16;100980.46;1623978;88;21939;-74
2022/04/12 03:31:19;;;;;;;28.77;15.47;;;;;;;-2.01;70.26;100975.27;1624256;88;20962;-74
2022/04/12 03:33:46;;;;;;;26.67;13.97;;;;;;;-2.02;70.29;100983.41;1623991;88;21045;-75
2022/04/12 03:36:14;;;;;;;28.20;14.57;;;;;;;-2.02;70.40;100979.97;1624354;88;21102;-74
2022/04/12 03:38:48;;;;;;;29.60;14.53;;;;;;;-2.05;70.43;100979.48;1624131;88;21319;-74
2022/04/12 03:41:10;;;;;;;29.27;14.40;;;;;;;-2.05;70.44;100985.01;1623486;88;22040;-74
2022/04/12 03:43:38;;;;;;;33.27;14.93;;;;;;;-2.07;70.45;100984.12;1623924;88;21061;-75
2022/04/12 03:46:05;;;;;;;26.50;15.63;;;;;;;-2.08;70.47;100982.37;1618337;88;21049;-75
2022/04/12 03:48:32;;;;;;;31.17;16.30;;;;;;;-2.09;70.58;100980.64;1610498;88;21022;-75
2022/04/12 03:50:59;;;;;;;32.10;15.83;;;;;;;-2.08;70.64;100988.41;1606550;89;21547;-76
2022/04/12 03:53:26;;;;;;;31.00;16.67;;;;;;;-2.09;70.64;100990.50;1606239;89;21150;-75
2022/04/12 03:55:55;;;;;;;32.73;16.97;;;;;;;-2.11;70.67;100985.73;1606452;89;21007;-75
2022/04/12 03:58:22;;;;;;;32.53;16.23;;;;;;;-2.10;70.76;100989.20;1606037;89;21038;-75
2022/04/12 04:00:49;;;;;;;30.13;15.90;;;;;;;-2.12;70.77;100994.28;1606350;89;21050;-77
2022/04/12 04:03:17;;;;;;;30.40;15.83;;;;;;;-2.12;70.78;100995.56;1606188;89;21026;-76
2022/04/12 04:05:45;;;;;;;33.20;16.37;;;;;;;-2.12;70.82;100994.28;1606133;87;21146;-75
2022/04/12 04:08:12;;;;;;;28.93;15.77;;;;;;;-2.15;70.85;100999.77;1603919;88;21055;-74
2022/04/12 04:10:38;;;;;;;29.43;15.97;;;;;;;-2.14;70.98;100995.07;1605405;89;21122;-75
2022/04/12 04:13:08;;;;;;;34.23;15.83;;;;;;;-2.15;71.01;101002.34;1605171;89;21059;-75
2022/04/12 04:15:37;;;;;;;27.82;14.30;;;;;;;-2.16;71.08;101001.86;1605514;89;21587;-76
2022/04/12 04:18:03;;;;;;;28.87;15.17;;;;;;;-2.11;71.89;101004.13;1603099;87;22016;-75
2022/04/12 04:20:30;;;;;;;28.97;14.47;;;;;;;-2.01;72.50;101004.81;1601600;89;21099;-76
2022/04/12 04:22:57;;;;;;;26.37;14.47;;;;;;;-1.89;72.79;101008.08;1599621;89;21063;-76
2022/04/12 04:25:24;;;;;;;27.57;14.57;;;;;;;-1.80;72.94;101012.17;1599701;89;21055;-75
2022/04/12 04:27:52;;;;;;;29.47;14.83;;;;;;;-1.73;72.85;101011.45;1607049;87;21475;-75
2022/04/12 04:30:20;;;;;;;26.17;14.17;;;;;;;-1.68;72.67;101015.43;1605304;89;21874;-75
2022/04/12 04:32:48;;;;;;;26.37;12.80;;;;;;;-1.64;72.87;101012.94;1605215;89;21540;-76
2022/04/12 04:35:15;;;;;;;26.53;13.50;;;;;;;-1.60;72.88;101012.61;1602845;89;21459;-75
2022/04/12 04:37:47;;;;;;;25.80;13.07;;;;;;;-1.57;72.80;101014.83;1606215;89;21497;-77
2022/04/12 04:40:22;;;;;;;26.90;12.73;;;;;;;-1.54;72.82;101013.16;1606251;89;21061;-75
2022/04/12 04:42:53;;;;;;;31.17;13.73;;;;;;;-1.49;72.87;101014.14;1606211;89;21231;-75
2022/04/12 04:45:20;;;;;;;21.60;12.03;;;;;;;-1.45;72.90;101023.64;1606136;89;21014;-75
2022/04/12 04:47:56;;;;;;;24.67;13.13;;;;;;;-1.42;72.92;101018.14;1606259;89;21026;-76
2022/04/12 04:50:27;;;;;;;24.20;12.40;;;;;;;-1.39;72.94;101022.48;1606183;89;21014;-77
2022/04/12 04:52:54;;;;;;;;;;;;;;;-1.37;72.92;101016.54;1608885;89;21090;-76
2022/04/12 04:55:21;;;;;;;23.20;11.97;;;;;;;-1.32;73.15;101022.22;1606356;89;21897;-77
2022/04/12 04:57:48;;;;;;;24.63;13.13;;;;;;;-1.31;72.91;101020.08;1606352;89;21070;-76
2022/04/12 05:00:18;;;;;;;26.07;12.30;;;;;;;-1.34;72.77;101023.45;1605773;89;21046;-76
2022/04/12 05:02:50;;;;;;;23.87;13.00;;;;;;;-1.35;72.80;101027.73;1609803;88;21002;-78
2022/04/12 05:05:18;;;;;;;29.03;14.00;;;;;;;-1.34;72.81;101028.59;1624073;88;21123;-76
2022/04/12 05:07:48;;;;;;;24.70;13.57;;;;;;;-1.29;72.99;101036.42;1624317;88;21137;-77
2022/04/12 05:10:20;;;;;;;;;;;;;;;-1.25;72.98;101041.64;1625872;88;21084;-78
2022/04/12 05:12:47;;;;;;;23.23;13.27;;;;;;;-1.21;73.17;101041.31;1624265;88;20209;-76
2022/04/12 05:15:15;;;;;;;23.60;13.03;;;;;;;-1.18;73.05;101044.81;1627888;87;21046;-78
2022/04/12 05:17:51;;;;;;;25.07;15.33;;;;;;;-1.14;73.07;101049.20;1632895;87;21066;-78
2022/04/12 05:20:19;;;;;;;27.57;15.00;;;;;;;-1.06;73.08;101054.91;1632698;87;21975;-77
2022/04/12 05:22:46;;;;;;;29.00;15.07;;;;;;;-1.01;73.09;101055.88;1632520;87;21540;-76
2022/04/12 05:25:14;;;;;;;32.97;15.67;;;;;;;-0.97;73.10;101060.23;1609313;87;21051;-76
2022/04/12 05:27:43;;;;;;;30.40;16.67;;;;;;;-0.91;73.11;101062.95;1599641;89;21008;-76
2022/04/12 05:30:13;;;;;;;36.40;18.60;;;;;;;-0.85;73.12;101061.78;1599754;89;21067;-76
2022/04/12 05:32:40;;;;;;;28.45;17.00;;;;;;;-0.78;73.18;101066.20;1599734;89;21592;-76
2022/04/12 05:35:09;;;;;;;32.83;16.60;;;;;;;-0.70;73.29;101063.78;1604324;89;21623;-76
2022/04/12 05:37:48;;;;;;;59.37;28.60;;;;;;;-0.62;73.25;101072.95;1604673;88;21092;-76
2022/04/12 05:40:18;;;;;;;48.23;24.73;;;;;;;-0.54;73.32;101069.67;1606449;89;21080;-75
2022/04/12 05:42:45;;;;;;;36.97;20.27;;;;;;;-0.43;73.43;101067.73;1606043;89;21064;-76
2022/04/12 05:45:14;;;;;;;34.23;17.20;;;;;;;-0.32;73.51;101072.23;1605882;89;21168;-76
2022/04/12 05:47:50;;;;;;;30.33;16.37;;;;;;;-0.21;73.57;101076.72;1605850;89;21416;-75
2022/04/12 05:50:19;;;;;;;30.20;15.43;;;;;;;-0.11;73.66;101076.02;1606013;89;21040;-75
2022/04/12 05:52:46;;;;;;;32.30;16.90;;;;;;;0.00;73.70;101079.67;1606249;89;21068;-74
2022/04/12 05:55:15;;;;;;;36.87;17.70;;;;;;;0.11;73.73;101075.56;1605945;89;21040;-77
2022/04/12 05:57:52;;;;;;;35.83;17.93;;;;;;;0.21;73.74;101078.71;1606104;89;21200;-76
2022/04/12 06:00:24;;;;;;;33.03;18.83;;;;;;;0.32;73.78;101078.89;1605868;89;21059;-74
2022/04/12 06:02:52;;;;;;;35.50;19.93;;;;;;;0.46;73.87;101081.67;1605905;89;21024;-74
2022/04/12 06:05:21;;;;;;;33.93;18.97;;;;;;;0.59;73.92;101078.88;1605876;89;21025;-74
2022/04/12 06:07:49;;;;;;;34.63;20.73;;;;;;;0.73;74.06;101079.06;1606123;89;21070;-73
2022/04/12 06:10:19;;;;;;;38.70;22.37;;;;;;;0.87;74.26;101085.28;1605964;89;21843;-73
2022/04/12 06:12:47;;;;;;;39.60;23.42;;;;;;;1.00;74.45;101081.13;1606090;89;21091;-74
2022/04/12 06:15:14;;;;;;;42.57;22.20;;;;;;;1.18;74.55;101085.67;1605933;89;21100;-73
2022/04/12 06:17:41;;;;;;;38.23;21.00;;;;;;;1.34;74.70;101081.14;1606131;89;21020;-74
2022/04/12 06:20:16;;;;;;;40.20;21.00;;;;;;;1.48;74.50;101084.73;1605824;89;21067;-73
2022/04/12 06:22:43;;;;;;;35.03;19.37;;;;;;;1.61;74.35;101086.15;1606117;89;21136;-73
2022/04/12 06:25:14;;;;;;;33.60;18.37;;;;;;;1.75;74.29;101086.75;1605775;89;21051;-73
2022/04/12 06:27:43;;;;;;;;;;;;;;;1.92;74.17;101087.34;1608647;89;21016;-76
2022/04/12 06:30:16;;;;;;;31.20;15.77;;;;;;;2.07;73.92;101091.34;1605947;89;20177;-73
2022/04/12 06:32:45;;;;;;;27.10;15.27;;;;;;;2.27;73.72;101088.92;1606149;89;21044;-74
2022/04/12 06:35:13;;;;;;;26.10;15.10;;;;;;;2.46;73.50;101097.26;1605951;89;21594;-73
2022/04/12 06:37:42;;;;;;;27.20;14.17;;;;;;;2.64;73.09;101095.67;1605794;89;21139;-73
2022/04/12 06:40:14;;;;;;;24.97;14.07;;;;;;;2.77;72.84;101092.31;1605885;89;21100;-73
2022/04/12 06:42:41;;;;;;;24.03;14.57;;;;;;;2.93;72.47;101102.31;1606070;89;21032;-73
2022/04/12 06:45:11;;;;;;;25.80;14.80;;;;;;;3.09;72.24;101096.78;1606000;89;21059;-72
2022/04/12 06:47:39;;;;;;;24.77;14.28;;;;;;;3.26;72.17;101099.02;1606256;89;21626;-72
2022/04/12 06:50:09;;;;;;;23.00;13.20;;;;;;;3.44;72.04;101102.13;1605785;89;21052;-74
2022/04/12 06:52:37;;;;;;;24.47;14.15;;;;;;;3.61;71.85;101100.02;1605962;89;21286;-73
2022/04/12 06:55:05;;;;;;;25.43;13.53;;;;;;;3.77;71.83;101103.08;1605948;89;21051;-71
2022/04/12 06:57:35;;;;;;;22.77;13.40;;;;;;;3.94;71.59;101103.11;1604162;88;21528;-76
2022/04/12 07:00:06;;;;;;;23.60;13.50;;;;;;;4.11;71.40;101103.98;1593968;89;21993;-74
2022/04/12 07:02:33;;;;;;;27.87;14.07;;;;;;;4.37;71.29;101105.71;1605329;89;22114;-73
2022/04/12 07:05:01;;;;;;;25.63;13.27;;;;;;;4.60;70.93;101103.09;1605447;89;21038;-74
2022/04/12 07:07:28;;;;;;;31.07;17.60;;;;;;;4.79;70.53;101103.93;1605717;89;21010;-74
2022/04/12 07:09:56;;;;;;;23.97;13.63;;;;;;;4.94;70.09;101107.81;1605868;89;20987;-73
2022/04/12 07:12:24;;;;;;;25.87;13.50;;;;;;;5.09;69.81;101106.45;1605857;89;21821;-74
2022/04/12 07:14:51;;;;;;;30.60;16.83;;;;;;;5.25;69.48;101110.30;1605517;89;21042;-74
2022/04/12 07:17:19;;;;;;;25.07;14.30;;;;;;;5.39;68.98;101112.41;1605981;89;21451;-74
2022/04/12 07:19:47;;;;;;;29.83;16.57;;;;;;;5.53;68.81;101115.80;1606341;89;21074;-73
2022/04/12 07:22:14;;;;;;;24.37;14.20;;;;;;;5.67;68.48;101117.03;1606231;89;21030;-73
2022/04/12 07:24:42;;;;;;;30.73;16.53;;;;;;;5.80;68.11;101113.94;1606325;89;21019;-73
2022/04/12 07:27:10;;;;;;;70.83;29.23;;;;;;;5.95;68.09;101111.70;1606163;89;21038;-73
2022/04/12 07:29:38;;;;;;;31.13;17.43;;;;;;;6.09;67.66;101107.26;1606028;89;21015;-74
2022/04/12 07:32:06;;;;;;;22.30;13.67;;;;;;;6.23;67.56;101105.85;1606350;89;21002;-74
2022/04/12 07:34:33;;;;;;;22.63;13.33;;;;;;;6.40;67.36;101104.00;1606146;89;21072;-74
2022/04/12 07:37:00;;;;;;;18.33;10.20;;;;;;;6.59;67.14;101105.12;1606404;89;21130;-74
2022/04/12 07:39:27;;;;;;;32.13;15.30;;;;;;;6.75;66.45;101108.45;1606041;89;21067;-74
2022/04/12 07:41:54;;;;;;;17.63;10.07;;;;;;;6.85;65.48;101106.18;1606440;89;21480;-74
2022/04/12 07:44:21;;;;;;;20.20;10.13;;;;;;;7.00;65.56;101101.23;1606195;89;21448;-74
2022/04/12 07:46:49;;;;;;;23.57;12.50;;;;;;;7.17;65.05;101100.59;1606345;89;21069;-74
2022/04/12 07:49:17;;;;;;;17.90;10.00;;;;;;;7.30;64.79;101103.48;1606220;89;21141;-73
2022/04/12 07:51:46;;;;;;;38.57;22.43;;;;;;;7.46;64.68;101106.77;1606070;89;21027;-74
2022/04/12 07:54:14;;;;;;;20.97;11.00;;;;;;;7.62;64.53;101115.27;1606423;89;20995;-73
2022/04/12 07:56:41;;;;;;;20.50;10.00;;;;;;;7.78;63.88;101109.37;1606116;89;21508;-74
2022/04/12 07:59:10;;;;;;;17.93;9.17;;;;;;;7.96;63.73;101113.03;1606435;89;21042;-77
2022/04/12 08:01:38;;;;;;;14.33;8.80;;;;;;;8.18;63.56;101114.87;1606083;89;21148;-73
2022/04/12 08:04:05;;;;;;;15.07;8.43;;;;;;;8.39;63.10;101112.82;1606266;89;21018;-74
2022/04/12 08:06:32;;;;;;;15.07;7.93;;;;;;;8.54;62.28;101109.11;1606247;89;21022;-74
2022/04/12 08:09:00;;;;;;;15.23;8.73;;;;;;;8.63;61.42;101114.16;1606360;89;20983;-78
2022/04/12 08:11:27;;;;;;;14.43;8.47;;;;;;;8.68;60.97;101111.88;1606093;89;21015;-74
2022/04/12 08:13:54;;;;;;;13.83;8.67;;;;;;;8.84;61.29;101114.20;1606333;89;21122;-73
2022/04/12 08:16:21;;;;;;;14.17;8.87;;;;;;;9.06;60.85;101113.35;1606111;89;21015;-73
2022/04/12 08:18:49;;;;;;;14.10;7.97;;;;;;;9.15;60.00;101115.81;1606411;89;21039;-74
2022/04/12 08:21:38;;;;;;;12.83;7.80;;;;;;;9.21;59.74;101114.83;1606064;89;21026;-74
2022/04/12 08:24:07;;;;;;;12.13;7.37;;;;;;;9.30;59.35;101110.25;1606329;89;21018;-73
2022/04/12 08:26:34;;;;;;;13.13;7.40;;;;;;;9.43;58.82;101111.33;1606069;89;21617;-73
2022/04/12 08:29:01;;;;;;;13.57;7.13;;;;;;;9.59;58.76;101115.34;1606115;89;20892;-73
2022/04/12 08:31:29;;;;;;;11.83;7.23;;;;;;;9.77;58.33;101107.07;1606154;89;21524;-78
2022/04/12 08:33:56;;;;;;;9.70;6.50;;;;;;;9.97;58.22;101107.06;1606181;89;21078;-74
2022/04/12 08:36:25;;;;;;;10.20;5.97;;;;;;;10.16;57.97;101106.19;1606205;89;20977;-73
2022/04/12 08:38:52;;;;;;;10.93;5.97;;;;;;;10.31;57.60;101101.93;1606063;89;21101;-73
2022/04/12 08:41:26;;;;;;;10.17;6.13;;;;;;;10.49;57.37;101109.31;1606120;89;21405;-73
2022/04/12 08:43:57;;;;;;;9.03;5.00;;;;;;;10.67;56.63;101099.28;1606176;89;21063;-73
2022/04/12 08:46:27;;;;;;;10.77;5.53;;;;;;;10.85;56.14;101102.70;1606093;89;21030;-73
2022/04/12 08:48:58;;;;;;;10.00;5.70;;;;;;;11.03;55.78;101105.29;1606200;89;26583;-74
2022/04/12 08:51:30;;;;;;;9.73;5.97;;;;;;;11.18;55.26;101103.99;1606080;89;21985;-73
2022/04/12 08:53:58;;;;;;;8.70;5.10;;;;;;;11.20;54.19;101104.81;1606042;89;21062;-74
2022/04/12 08:56:29;;;;;;;9.27;5.40;;;;;;;11.19;53.94;101094.34;1606372;89;21011;-74
2022/04/12 08:58:58;;;;;;;9.00;5.60;;;;;;;11.27;53.81;101100.23;1606068;89;21089;-73
2022/04/12 09:01:25;;;;;;;9.60;5.65;;;;;;;11.50;53.73;101099.56;1606395;89;21525;-73
2022/04/12 09:03:54;;;;;;;8.18;5.10;;;;;;;11.59;52.86;101107.19;1606053;89;21692;-73
2022/04/12 09:06:21;;;;;;;8.78;5.00;;;;;;;11.60;52.30;101103.64;1606314;89;21067;-73
2022/04/12 09:08:48;;;;;;;6.95;3.30;;;;;;;11.68;52.12;101094.23;1606019;89;21082;-73
2022/04/12 09:11:17;;;;;;;5.90;3.70;;;;;;;11.88;51.72;101096.27;1606393;89;20995;-74
2022/04/12 09:14:00;;;;;;;5.80;3.52;;;;;;;12.04;51.37;101104.06;1606193;89;21079;-73
2022/04/12 09:16:28;;;;;;;6.75;3.62;;;;;;;12.19;50.85;101104.91;1606016;89;21152;-73
2022/04/12 09:18:56;;;;;;;7.85;3.37;;;;;;;12.36;50.46;101095.58;1606348;89;21030;-73
2022/04/12 09:21:27;;;;;;;5.42;3.40;;;;;;;12.44;49.89;101094.87;1606495;89;21007;-73
2022/04/12 09:23:55;;;;;;;6.03;3.60;;;;;;;12.65;49.78;101090.20;1606224;89;21052;-73
2022/04/12 09:26:28;;;;;;;8.58;4.20;;;;;;;12.86;49.16;101090.38;1606594;89;21515;-73
2022/04/12 09:28:58;;;;;;;7.17;4.05;;;;;;;12.93;48.84;101091.39;1606529;89;21891;-73
2022/04/12 09:31:25;;;;;;;;;;;;;;;12.94;47.94;101099.72;1608592;89;21014;-73
2022/04/12 09:33:56;;;;;;;9.45;4.58;;;;;;;12.97;47.25;101096.55;1606306;89;20170;-73
2022/04/12 09:36:24;;;;;;;8.50;4.85;;;;;;;12.99;47.34;101089.47;1606423;89;21493;-73
2022/04/12 09:38:59;;;;;;;8.28;4.92;;;;;;;13.03;47.40;101088.45;1606303;89;21042;-73
2022/04/12 09:41:27;;;;;;;6.97;4.40;;;;;;;13.19;47.35;101079.09;1606468;89;21182;-73
2022/04/12 09:44:05;;;;;;;7.87;5.25;;;;;;;13.34;47.13;101081.63;1606363;89;21027;-73
2022/04/12 09:46:28;;;;;;;8.85;4.95;;;;;;;13.56;47.41;101084.30;1605521;89;21547;-73
2022/04/12 09:48:55;;;;;;;9.18;5.00;;;;;;;13.77;46.79;101077.32;1606388;89;21042;-73
2022/04/12 09:51:23;;;;;;;7.22;5.05;;;;;;;14.00;46.74;101077.28;1606190;89;21054;-74
2022/04/12 09:53:52;;;;;;;8.20;4.95;;;;;;;14.22;46.26;101064.08;1606376;89;21126;-73
2022/04/12 09:56:26;;;;;;;8.95;5.20;;;;;;;14.40;46.15;101065.07;1606662;89;21003;-73
2022/04/12 09:58:56;;;;;;;9.00;5.37;;;;;;;14.58;45.60;101056.88;1606345;89;22219;-73
2022/04/12 10:01:23;;;;;;;;;;;;;;;14.79;45.69;101052.43;1608860;89;21497;-79
2022/04/12 10:03:54;;;;;;;6.03;4.15;;;;;;;15.14;44.90;101057.45;1606287;89;20533;-73
2022/04/12 10:06:24;;;;;;;8.35;4.70;;;;;;;15.45;45.11;101060.47;1606159;89;22034;-73
2022/04/12 10:09:04;;;;;;;5.53;3.45;;;;;;;15.59;44.42;101058.88;1606427;89;27582;-73
2022/04/12 10:11:29;;;;;;;6.95;3.35;;;;;;;15.75;43.64;101052.44;1605586;89;21014;-74
2022/04/12 10:13:57;;;;;;;6.55;3.47;;;;;;;15.83;43.27;101052.92;1606253;89;21026;-73
2022/04/12 10:16:24;;;;;;;7.67;3.90;;;;;;;16.06;43.02;101015.24;1606446;89;21574;-73
2022/04/12 10:18:54;;;;;;;5.12;3.62;;;;;;;16.22;42.55;101042.63;1606400;89;21228;-73
2022/04/12 10:21:26;;;;;;;5.87;3.42;;;;;;;16.36;42.06;101047.70;1606354;89;21041;-73
2022/04/12 10:23:56;;;;;;;5.55;3.40;;;;;;;16.53;41.56;101035.77;1606335;89;21037;-73
2022/04/12 10:26:26;;;;;;;6.28;3.90;;;;;;;16.68;41.20;101033.67;1606398;89;21046;-73
2022/04/12 10:29:04;;;;;;;7.78;3.90;;;;;;;16.71;40.53;101043.21;1606378;89;21002;-76
2022/04/12 10:31:32;;;;;;;6.72;4.03;;;;;;;16.85;40.35;101035.90;1606321;89;22051;-73
2022/04/12 10:34:11;;;;;;;5.78;3.70;;;;;;;17.08;40.35;101031.56;1606173;89;20999;-74
2022/04/12 10:37:04;;;;;;;6.05;4.03;;;;;;;17.28;39.75;101034.92;1606982;89;21066;-73
2022/04/12 10:39:41;;;;;;;4.85;3.62;;;;;;;17.54;39.45;101024.19;1606239;89;21018;-74
2022/04/12 10:42:14;;;;;;;7.05;3.80;;;;;;;17.69;39.15;101021.16;1604121;89;21066;-75
2022/04/12 10:44:57;;;;;;;5.60;3.72;;;;;;;17.82;38.75;101009.80;1606129;89;21242;-74
2022/04/12 10:47:34;;;;;;;6.83;3.85;;;;;;;17.96;38.57;101020.09;1606421;89;21038;-74
2022/04/12 10:50:07;;;;;;;6.10;3.77;;;;;;;18.15;38.18;101015.41;1606101;89;21046;-74
2022/04/12 10:52:48;;;;;;;6.55;4.33;;;;;;;18.25;37.59;101014.38;1606156;89;21026;-74
2022/04/12 10:55:28;;;;;;;6.03;3.67;;;;;;;18.49;37.45;101013.40;1606164;89;21545;-74
2022/04/12 10:58:16;;;;;;;6.40;3.85;;;;;;;18.70;37.00;101010.73;1606497;89;21089;-74
2022/04/12 11:00:45;;;;;;;6.62;4.00;;;;;;;18.71;36.33;101004.50;1603950;89;21015;-74
2022/04/12 11:03:13;;;;;;;5.83;4.12;;;;;;;18.86;36.02;101004.05;1606480;89;21028;-74
2022/04/12 11:05:46;;;;;;;8.00;4.42;;;;;;;18.91;35.63;101003.77;1606139;89;21026;-74
2022/04/12 11:08:20;;;;;;;5.58;4.03;;;;;;;19.10;35.81;100994.18;1606472;89;21007;-74
2022/04/12 11:10:59;;;;;;;5.75;3.77;;;;;;;19.19;35.43;100988.27;1606135;89;22254;-74
2022/04/12 11:13:34;;;;;;;6.87;4.40;;;;;;;19.27;34.96;100981.99;1606533;89;21030;-74
2022/04/12 11:16:10;;;;;;;5.70;4.20;;;;;;;19.36;34.92;100985.86;1606156;89;21765;-73
2022/04/12 11:18:58;;;;;;;5.35;3.58;;;;;;;19.57;35.12;100987.61;1606197;89;21018;-74
2022/04/12 11:21:41;;;;;;;6.47;3.67;;;;;;;19.89;35.23;100977.52;1606194;89;21007;-74
2022/04/12 11:24:12;;;;;;;6.12;3.98;;;;;;;20.17;34.84;100985.81;1546070;91;21794;-74
2022/04/12 11:26:50;;;;;;;5.58;3.22;;;;;;;20.46;34.68;100982.50;1543725;91;21082;-74
2022/04/12 11:29:25;;;;;;;7.12;3.60;;;;;;;20.54;34.11;100986.00;1546977;91;21082;-74